sensor_id;sensor_type;location;lat;lon;timestamp;pressure;altitude;pressure_sealevel;temperature;humidity
61324;BME280;47203;48.428;11.974;2024-03-08T00:01:40;102135.47;;;16.81;62.76
61324;BME280;47203;48.428;11.974;2024-03-08T00:03:44;102127.47;;;16.81;62.58
61324;BME280;47203;48.428;11.974;2024-03-08T00:05:46;102130.94;;;16.81;62.74
61324;BME280;47203;48.428;11.974;2024-03-08T00:07:47;102125.63;;;16.81;62.69
61324;BME280;47203;48.428;11.974;2024-03-08T00:09:49;102131.13;;;16.80;62.68
61324;BME280;47203;48.428;11.974;2024-03-08T00:11:52;102126.63;;;16.80;62.58
61324;BME280;47203;48.428;11.974;2024-03-08T00:13:54;102129.28;;;16.80;62.60
61324;BME280;47203;48.428;11.974;2024-03-08T00:15:56;102119.63;;;16.79;62.62
61324;BME280;47203;48.428;11.974;2024-03-08T00:17:58;102125.63;;;16.81;62.62
61324;BME280;47203;48.428;11.974;2024-03-08T00:20:00;102128.47;;;16.80;62.55
61324;BME280;47203;48.428;11.974;2024-03-08T00:22:04;102117.81;;;16.80;62.56
61324;BME280;47203;48.428;11.974;2024-03-08T00:24:06;102129.28;;;16.80;62.77
61324;BME280;47203;48.428;11.974;2024-03-08T00:26:08;102123.97;;;16.80;62.76
61324;BME280;47203;48.428;11.974;2024-03-08T00:28:11;102128.47;;;16.80;62.56
61324;BME280;47203;48.428;11.974;2024-03-08T00:30:15;102125.81;;;16.80;62.73
61324;BME280;47203;48.428;11.974;2024-03-08T00:32:16;102122.28;;;16.79;62.63
61324;BME280;47203;48.428;11.974;2024-03-08T00:34:21;102113.50;;;16.79;62.72
61324;BME280;47203;48.428;11.974;2024-03-08T00:36:23;102124.13;;;16.79;62.64
61324;BME280;47203;48.428;11.974;2024-03-08T00:38:25;102122.28;;;16.79;62.81
61324;BME280;47203;48.428;11.974;2024-03-08T00:40:27;102118.81;;;16.79;62.70
61324;BME280;47203;48.428;11.974;2024-03-08T00:42:29;102119.63;;;16.79;62.65
61324;BME280;47203;48.428;11.974;2024-03-08T00:44:35;102118.81;;;16.79;62.77
61324;BME280;47203;48.428;11.974;2024-03-08T00:46:38;102115.34;;;16.78;62.63
61324;BME280;47203;48.428;11.974;2024-03-08T00:48:40;102118.81;;;16.79;62.77
61324;BME280;47203;48.428;11.974;2024-03-08T00:50:43;102118.81;;;16.79;62.78
61324;BME280;47203;48.428;11.974;2024-03-08T00:52:46;102116.16;;;16.79;62.65
61324;BME280;47203;48.428;11.974;2024-03-08T00:54:48;102116.16;;;16.79;62.68
61324;BME280;47203;48.428;11.974;2024-03-08T00:56:49;102107.34;;;16.78;62.59
61324;BME280;47203;48.428;11.974;2024-03-08T00:58:51;102103.84;;;16.78;62.84
61324;BME280;47203;48.428;11.974;2024-03-08T01:00:54;102104.84;;;16.77;62.78
61324;BME280;47203;48.428;11.974;2024-03-08T01:02:57;102102.03;;;16.78;62.80
61324;BME280;47203;48.428;11.974;2024-03-08T01:05:00;102095.84;;;16.78;62.89
61324;BME280;47203;48.428;11.974;2024-03-08T01:07:02;102103.84;;;16.78;62.68
61324;BME280;47203;48.428;11.974;2024-03-08T01:09:04;102093.19;;;16.78;62.90
61324;BME280;47203;48.428;11.974;2024-03-08T01:11:07;102088.72;;;16.78;62.79
61324;BME280;47203;48.428;11.974;2024-03-08T01:13:09;102086.06;;;16.78;62.67
61324;BME280;47203;48.428;11.974;2024-03-08T01:15:11;102082.53;;;16.78;62.85
61324;BME280;47203;48.428;11.974;2024-03-08T01:17:14;102075.59;;;16.77;62.76
61324;BME280;47203;48.428;11.974;2024-03-08T01:19:15;102074.75;;;16.76;62.88
61324;BME280;47203;48.428;11.974;2024-03-08T01:21:18;102079.88;;;16.78;62.76
61324;BME280;47203;48.428;11.974;2024-03-08T01:23:18;102066.56;;;16.78;62.70
61324;BME280;47203;48.428;11.974;2024-03-08T01:25:20;102070.25;;;16.77;62.76
61324;BME280;47203;48.428;11.974;2024-03-08T01:27:23;102072.94;;;16.77;62.80
61324;BME280;47203;48.428;11.974;2024-03-08T01:29:26;102060.63;;;16.75;62.75
61324;BME280;47203;48.428;11.974;2024-03-08T01:31:28;102066.56;;;16.78;62.85
61324;BME280;47203;48.428;11.974;2024-03-08T01:33:31;102056.97;;;16.77;62.84
61324;BME280;47203;48.428;11.974;2024-03-08T01:35:32;102061.25;;;16.78;62.79
61324;BME280;47203;48.428;11.974;2024-03-08T01:37:35;102056.09;;;16.76;62.89
61324;BME280;47203;48.428;11.974;2024-03-08T01:39:35;102048.97;;;16.77;62.91
61324;BME280;47203;48.428;11.974;2024-03-08T01:41:38;102056.97;;;16.77;62.83
61324;BME280;47203;48.428;11.974;2024-03-08T01:43:40;102048.78;;;16.78;62.84
61324;BME280;47203;48.428;11.974;2024-03-08T01:45:42;102039.97;;;16.78;62.77
61324;BME280;47203;48.428;11.974;2024-03-08T01:47:44;102045.28;;;16.78;62.75
61324;BME280;47203;48.428;11.974;2024-03-08T01:49:50;102041.63;;;16.79;62.78
61324;BME280;47203;48.428;11.974;2024-03-08T01:51:52;102039.97;;;16.78;62.82
61324;BME280;47203;48.428;11.974;2024-03-08T01:53:53;102037.31;;;16.78;62.85
61324;BME280;47203;48.428;11.974;2024-03-08T01:55:57;102035.50;;;16.78;62.91
61324;BME280;47203;48.428;11.974;2024-03-08T01:57:59;102025.66;;;16.79;62.88
61324;BME280;47203;48.428;11.974;2024-03-08T02:00:01;102025.66;;;16.79;62.92
61324;BME280;47203;48.428;11.974;2024-03-08T02:02:06;102028.31;;;16.79;62.86
61324;BME280;47203;48.428;11.974;2024-03-08T02:04:10;102028.31;;;16.79;62.78
61324;BME280;47203;48.428;11.974;2024-03-08T02:06:13;102025.66;;;16.79;62.85
61324;BME280;47203;48.428;11.974;2024-03-08T02:08:17;102022.00;;;16.80;62.81
61324;BME280;47203;48.428;11.974;2024-03-08T02:10:19;102022.00;;;16.80;62.85
61324;BME280;47203;48.428;11.974;2024-03-08T02:12:22;102015.84;;;16.79;62.84
61324;BME280;47203;48.428;11.974;2024-03-08T02:14:24;102011.38;;;16.80;62.87
61324;BME280;47203;48.428;11.974;2024-03-08T02:16:26;102007.69;;;16.81;62.94
61324;BME280;47203;48.428;11.974;2024-03-08T02:18:29;102009.53;;;16.80;62.84
61324;BME280;47203;48.428;11.974;2024-03-08T02:20:32;102006.03;;;16.80;63.02
61324;BME280;47203;48.428;11.974;2024-03-08T02:22:33;102004.19;;;16.80;62.87
61324;BME280;47203;48.428;11.974;2024-03-08T02:24:35;102004.19;;;16.80;62.97
61324;BME280;47203;48.428;11.974;2024-03-08T02:26:36;101999.72;;;16.81;62.86
61324;BME280;47203;48.428;11.974;2024-03-08T02:28:39;101995.22;;;16.81;62.89
61324;BME280;47203;48.428;11.974;2024-03-08T02:30:40;102003.38;;;16.80;62.89
61324;BME280;47203;48.428;11.974;2024-03-08T02:32:42;102000.53;;;16.81;62.97
61324;BME280;47203;48.428;11.974;2024-03-08T02:34:42;101994.41;;;16.81;63.00
61324;BME280;47203;48.428;11.974;2024-03-08T02:36:46;101992.56;;;16.81;63.02
61324;BME280;47203;48.428;11.974;2024-03-08T02:38:48;101998.69;;;16.82;63.07
61324;BME280;47203;48.428;11.974;2024-03-08T02:40:51;101991.72;;;16.81;62.95
61324;BME280;47203;48.428;11.974;2024-03-08T02:42:53;102001.34;;;16.82;62.92
61324;BME280;47203;48.428;11.974;2024-03-08T02:44:55;102001.34;;;16.82;63.11
61324;BME280;47203;48.428;11.974;2024-03-08T02:46:56;102001.34;;;16.82;62.89
61324;BME280;47203;48.428;11.974;2024-03-08T02:48:58;101998.69;;;16.82;63.02
61324;BME280;47203;48.428;11.974;2024-03-08T02:51:01;101994.22;;;16.82;63.01
61324;BME280;47203;48.428;11.974;2024-03-08T02:53:05;101986.25;;;16.82;63.03
61324;BME280;47203;48.428;11.974;2024-03-08T02:55:06;101988.03;;;16.82;62.88
61324;BME280;47203;48.428;11.974;2024-03-08T02:57:12;101987.22;;;16.81;63.03
61324;BME280;47203;48.428;11.974;2024-03-08T02:59:15;101980.91;;;16.82;62.90
61324;BME280;47203;48.428;11.974;2024-03-08T03:01:18;101985.38;;;16.82;62.92
61324;BME280;47203;48.428;11.974;2024-03-08T03:03:20;101977.22;;;16.83;63.07
61324;BME280;47203;48.428;11.974;2024-03-08T03:05:23;101970.28;;;16.82;63.04
61324;BME280;47203;48.428;11.974;2024-03-08T03:07:25;101966.75;;;16.82;63.04
61324;BME280;47203;48.428;11.974;2024-03-08T03:09:29;101965.75;;;16.83;63.09
61324;BME280;47203;48.428;11.974;2024-03-08T03:11:36;101955.94;;;16.83;63.06
61324;BME280;47203;48.428;11.974;2024-03-08T03:13:38;101965.75;;;16.83;63.00
61324;BME280;47203;48.428;11.974;2024-03-08T03:15:40;101957.78;;;16.83;63.00
61324;BME280;47203;48.428;11.974;2024-03-08T03:17:45;101956.09;;;16.82;63.01
61324;BME280;47203;48.428;11.974;2024-03-08T03:19:50;101951.63;;;16.82;63.09
61324;BME280;47203;48.428;11.974;2024-03-08T03:21:52;101956.09;;;16.82;63.00
61324;BME280;47203;48.428;11.974;2024-03-08T03:23:54;101956.09;;;16.82;63.03
61324;BME280;47203;48.428;11.974;2024-03-08T03:25:57;101954.31;;;16.82;63.08
61324;BME280;47203;48.428;11.974;2024-03-08T03:27:58;101964.94;;;16.82;63.00
61324;BME280;47203;48.428;11.974;2024-03-08T03:30:00;101964.09;;;16.82;63.03
61324;BME280;47203;48.428;11.974;2024-03-08T03:32:21;101964.09;;;16.82;63.03
61324;BME280;47203;48.428;11.974;2024-03-08T03:34:24;101962.47;;;16.81;63.22
61324;BME280;47203;48.428;11.974;2024-03-08T03:36:25;101956.09;;;16.82;63.08
61324;BME280;47203;48.428;11.974;2024-03-08T03:38:28;101961.44;;;16.82;63.09
61324;BME280;47203;48.428;11.974;2024-03-08T03:40:30;101956.09;;;16.82;63.14
61324;BME280;47203;48.428;11.974;2024-03-08T03:42:33;101964.09;;;16.82;63.11
61324;BME280;47203;48.428;11.974;2024-03-08T03:44:35;101957.13;;;16.81;62.98
61324;BME280;47203;48.428;11.974;2024-03-08T03:46:37;101956.09;;;16.82;63.08
61324;BME280;47203;48.428;11.974;2024-03-08T03:48:44;101955.28;;;16.81;63.00
61324;BME280;47203;48.428;11.974;2024-03-08T03:50:46;101960.63;;;16.81;63.00
61324;BME280;47203;48.428;11.974;2024-03-08T03:52:48;101952.63;;;16.81;63.12
61324;BME280;47203;48.428;11.974;2024-03-08T03:54:50;101961.44;;;16.82;62.96
61324;BME280;47203;48.428;11.974;2024-03-08T03:56:52;101961.44;;;16.82;63.03
61324;BME280;47203;48.428;11.974;2024-03-08T03:58:55;101953.44;;;16.82;63.03
61324;BME280;47203;48.428;11.974;2024-03-08T04:00:57;101956.97;;;16.82;63.01
61324;BME280;47203;48.428;11.974;2024-03-08T04:02:58;101955.28;;;16.81;63.07
61324;BME280;47203;48.428;11.974;2024-03-08T04:05:01;101954.31;;;16.82;63.13
61324;BME280;47203;48.428;11.974;2024-03-08T04:07:02;101946.50;;;16.81;63.04
61324;BME280;47203;48.428;11.974;2024-03-08T04:09:05;101956.09;;;16.82;63.02
61324;BME280;47203;48.428;11.974;2024-03-08T04:11:07;101949.78;;;16.83;63.07
61324;BME280;47203;48.428;11.974;2024-03-08T04:13:09;101945.47;;;16.82;63.14
61324;BME280;47203;48.428;11.974;2024-03-08T04:15:12;101948.13;;;16.82;63.14
61324;BME280;47203;48.428;11.974;2024-03-08T04:17:14;101941.16;;;16.81;63.07
61324;BME280;47203;48.428;11.974;2024-03-08T04:19:15;101944.66;;;16.81;63.22
61324;BME280;47203;48.428;11.974;2024-03-08T04:21:16;101938.34;;;16.82;63.04
61324;BME280;47203;48.428;11.974;2024-03-08T04:23:19;101948.97;;;16.82;63.08
61324;BME280;47203;48.428;11.974;2024-03-08T04:25:21;101945.47;;;16.82;63.14
61324;BME280;47203;48.428;11.974;2024-03-08T04:27:23;101947.31;;;16.81;63.01
61324;BME280;47203;48.428;11.974;2024-03-08T04:29:25;101947.31;;;16.81;63.04
61324;BME280;47203;48.428;11.974;2024-03-08T04:31:29;101942.00;;;16.81;63.07
61324;BME280;47203;48.428;11.974;2024-03-08T04:33:31;101934.81;;;16.82;62.99
61324;BME280;47203;48.428;11.974;2024-03-08T04:35:33;101942.81;;;16.82;63.15
61324;BME280;47203;48.428;11.974;2024-03-08T04:37:34;101942.00;;;16.81;63.26
61324;BME280;47203;48.428;11.974;2024-03-08T04:39:36;101934.00;;;16.81;63.16
61324;BME280;47203;48.428;11.974;2024-03-08T04:41:38;101936.84;;;16.80;63.08
61324;BME280;47203;48.428;11.974;2024-03-08T04:43:40;101938.50;;;16.81;63.08
61324;BME280;47203;48.428;11.974;2024-03-08T04:45:42;101936.66;;;16.81;63.19
61324;BME280;47203;48.428;11.974;2024-03-08T04:47:48;101940.13;;;16.82;63.22
61324;BME280;47203;48.428;11.974;2024-03-08T04:49:50;101937.66;;;16.80;63.09
61324;BME280;47203;48.428;11.974;2024-03-08T04:51:52;101935.84;;;16.81;62.97
61324;BME280;47203;48.428;11.974;2024-03-08T04:53:54;101927.00;;;16.80;63.35
61324;BME280;47203;48.428;11.974;2024-03-08T04:55:57;101922.53;;;16.81;63.07
61324;BME280;47203;48.428;11.974;2024-03-08T04:57:59;101933.19;;;16.81;63.14
61324;BME280;47203;48.428;11.974;2024-03-08T05:00:01;101927.00;;;16.80;63.05
61324;BME280;47203;48.428;11.974;2024-03-08T05:02:03;101924.34;;;16.80;63.28
61324;BME280;47203;48.428;11.974;2024-03-08T05:04:06;101923.34;;;16.81;63.15
61324;BME280;47203;48.428;11.974;2024-03-08T05:06:07;101922.53;;;16.81;63.19
61324;BME280;47203;48.428;11.974;2024-03-08T05:08:09;101927.88;;;16.81;63.22
61324;BME280;47203;48.428;11.974;2024-03-08T05:10:11;101925.19;;;16.81;63.23
61324;BME280;47203;48.428;11.974;2024-03-08T05:12:18;101920.69;;;16.81;63.22
61324;BME280;47203;48.428;11.974;2024-03-08T05:14:19;101917.22;;;16.81;63.26
61324;BME280;47203;48.428;11.974;2024-03-08T05:16:21;101912.72;;;16.81;63.09
61324;BME280;47203;48.428;11.974;2024-03-08T05:18:25;101911.03;;;16.80;63.11
61324;BME280;47203;48.428;11.974;2024-03-08T05:20:27;101913.53;;;16.82;63.13
61324;BME280;47203;48.428;11.974;2024-03-08T05:22:28;101903.06;;;16.80;63.32
61324;BME280;47203;48.428;11.974;2024-03-08T05:24:30;101904.91;;;16.80;63.20
61324;BME280;47203;48.428;11.974;2024-03-08T05:26:32;101903.91;;;16.81;63.19
61324;BME280;47203;48.428;11.974;2024-03-08T05:28:34;101905.53;;;16.82;63.14
61324;BME280;47203;48.428;11.974;2024-03-08T05:30:38;101909.22;;;16.81;63.21
61324;BME280;47203;48.428;11.974;2024-03-08T05:32:40;101904.72;;;16.81;63.30
61324;BME280;47203;48.428;11.974;2024-03-08T05:34:44;101897.75;;;16.80;63.23
61324;BME280;47203;48.428;11.974;2024-03-08T05:36:49;101899.41;;;16.81;63.22
61324;BME280;47203;48.428;11.974;2024-03-08T05:38:51;101898.59;;;16.81;63.19
61324;BME280;47203;48.428;11.974;2024-03-08T05:40:52;101895.06;;;16.80;63.23
61324;BME280;47203;48.428;11.974;2024-03-08T05:42:54;101894.91;;;16.82;63.29
61324;BME280;47203;48.428;11.974;2024-03-08T05:44:56;101887.09;;;16.80;63.29
61324;BME280;47203;48.428;11.974;2024-03-08T05:46:59;101894.09;;;16.81;63.08
61324;BME280;47203;48.428;11.974;2024-03-08T05:49:01;101893.25;;;16.81;63.28
61324;BME280;47203;48.428;11.974;2024-03-08T05:51:14;101890.59;;;16.81;63.28
61324;BME280;47203;48.428;11.974;2024-03-08T05:53:17;101890.59;;;16.81;63.23
61324;BME280;47203;48.428;11.974;2024-03-08T05:55:19;101887.09;;;16.80;63.09
61324;BME280;47203;48.428;11.974;2024-03-08T05:57:21;101888.75;;;16.81;63.40
61324;BME280;47203;48.428;11.974;2024-03-08T05:59:24;101886.09;;;16.81;63.15
61324;BME280;47203;48.428;11.974;2024-03-08T06:01:26;101890.59;;;16.81;63.43
61324;BME280;47203;48.428;11.974;2024-03-08T06:03:28;101885.28;;;16.81;63.16
61324;BME280;47203;48.428;11.974;2024-03-08T06:05:30;101883.44;;;16.81;63.15
61324;BME280;47203;48.428;11.974;2024-03-08T06:07:32;101886.09;;;16.81;63.35
61324;BME280;47203;48.428;11.974;2024-03-08T06:09:35;101886.91;;;16.82;63.18
61324;BME280;47203;48.428;11.974;2024-03-08T06:11:37;101880.94;;;16.80;63.30
61324;BME280;47203;48.428;11.974;2024-03-08T06:13:39;101879.09;;;16.80;63.25
61324;BME280;47203;48.428;11.974;2024-03-08T06:15:41;101877.28;;;16.81;63.18
61324;BME280;47203;48.428;11.974;2024-03-08T06:17:43;101886.09;;;16.81;63.22
61324;BME280;47203;48.428;11.974;2024-03-08T06:19:45;101877.28;;;16.81;63.35
61324;BME280;47203;48.428;11.974;2024-03-08T06:21:47;101878.13;;;16.81;63.15
61324;BME280;47203;48.428;11.974;2024-03-08T06:23:49;101878.94;;;16.82;63.28
61324;BME280;47203;48.428;11.974;2024-03-08T06:25:52;101870.94;;;16.82;63.36
61324;BME280;47203;48.428;11.974;2024-03-08T06:27:54;101869.13;;;16.82;63.20
61324;BME280;47203;48.428;11.974;2024-03-08T06:29:56;101870.94;;;16.82;63.32
61324;BME280;47203;48.428;11.974;2024-03-08T06:31:57;101863.81;;;16.82;63.37
61324;BME280;47203;48.428;11.974;2024-03-08T06:34:00;101864.63;;;16.83;63.22
61324;BME280;47203;48.428;11.974;2024-03-08T06:36:02;101866.47;;;16.82;63.34
61324;BME280;47203;48.428;11.974;2024-03-08T06:38:04;101861.97;;;16.83;63.22
61324;BME280;47203;48.428;11.974;2024-03-08T06:40:07;101862.97;;;16.82;63.31
61324;BME280;47203;48.428;11.974;2024-03-08T06:42:14;101861.31;;;16.81;63.32
61324;BME280;47203;48.428;11.974;2024-03-08T06:44:17;101862.97;;;16.82;63.30
61324;BME280;47203;48.428;11.974;2024-03-08T06:46:22;101861.31;;;16.81;63.36
61324;BME280;47203;48.428;11.974;2024-03-08T06:48:24;101864.00;;;16.81;63.28
61324;BME280;47203;48.428;11.974;2024-03-08T06:50:25;101864.00;;;16.81;63.19
61324;BME280;47203;48.428;11.974;2024-03-08T06:52:27;101867.47;;;16.81;63.19
61324;BME280;47203;48.428;11.974;2024-03-08T06:54:29;101863.31;;;16.79;63.26
61324;BME280;47203;48.428;11.974;2024-03-08T06:56:31;101868.66;;;16.79;63.20
61324;BME280;47203;48.428;11.974;2024-03-08T06:58:34;101860.66;;;16.79;63.44
61324;BME280;47203;48.428;11.974;2024-03-08T07:00:36;101868.00;;;16.77;63.19
61324;BME280;47203;48.428;11.974;2024-03-08T07:02:38;101866.97;;;16.78;63.45
61324;BME280;47203;48.428;11.974;2024-03-08T07:04:40;101869.81;;;16.76;63.34
61324;BME280;47203;48.428;11.974;2024-03-08T07:06:42;101869.00;;;16.75;63.26
61324;BME280;47203;48.428;11.974;2024-03-08T07:08:44;101869.81;;;16.76;63.34
61324;BME280;47203;48.428;11.974;2024-03-08T07:10:46;101860.19;;;16.75;63.44
61324;BME280;47203;48.428;11.974;2024-03-08T07:12:49;101864.69;;;16.74;63.24
61324;BME280;47203;48.428;11.974;2024-03-08T07:14:53;101870.84;;;16.75;63.29
61324;BME280;47203;48.428;11.974;2024-03-08T07:16:54;101861.19;;;16.74;63.35
61324;BME280;47203;48.428;11.974;2024-03-08T07:18:56;101863.03;;;16.73;63.25
61324;BME280;47203;48.428;11.974;2024-03-08T07:20:59;101861.38;;;16.72;63.40
61324;BME280;47203;48.428;11.974;2024-03-08T07:23:02;101861.38;;;16.72;63.37
61324;BME280;47203;48.428;11.974;2024-03-08T07:25:05;101863.22;;;16.72;63.34
61324;BME280;47203;48.428;11.974;2024-03-08T07:27:20;101864.22;;;16.71;63.46
61324;BME280;47203;48.428;11.974;2024-03-08T07:29:22;101865.88;;;16.72;63.31
61324;BME280;47203;48.428;11.974;2024-03-08T07:31:25;101866.03;;;16.70;63.26
61324;BME280;47203;48.428;11.974;2024-03-08T07:33:35;101867.88;;;16.70;63.33
61324;BME280;47203;48.428;11.974;2024-03-08T07:35:38;101870.53;;;16.70;63.31
61324;BME280;47203;48.428;11.974;2024-03-08T07:37:40;101869.72;;;16.69;63.34
61324;BME280;47203;48.428;11.974;2024-03-08T07:39:42;101864.41;;;16.69;63.38
61324;BME280;47203;48.428;11.974;2024-03-08T07:41:44;101867.06;;;16.69;63.47
61324;BME280;47203;48.428;11.974;2024-03-08T07:43:45;101863.56;;;16.69;63.55
61324;BME280;47203;48.428;11.974;2024-03-08T07:45:47;101860.91;;;16.69;63.50
61324;BME280;47203;48.428;11.974;2024-03-08T07:47:50;101852.09;;;16.68;63.57
61324;BME280;47203;48.428;11.974;2024-03-08T07:49:54;101851.28;;;16.68;63.37
61324;BME280;47203;48.428;11.974;2024-03-08T07:51:55;101848.63;;;16.68;63.55
61324;BME280;47203;48.428;11.974;2024-03-08T07:53:58;101856.59;;;16.68;63.44
61324;BME280;47203;48.428;11.974;2024-03-08T07:56:00;101852.09;;;16.68;63.51
61324;BME280;47203;48.428;11.974;2024-03-08T07:58:02;101850.44;;;16.67;63.36
61324;BME280;47203;48.428;11.974;2024-03-08T08:00:05;101845.09;;;16.67;63.42
61324;BME280;47203;48.428;11.974;2024-03-08T08:02:08;101848.81;;;16.66;63.58
61324;BME280;47203;48.428;11.974;2024-03-08T08:04:12;101847.78;;;16.67;63.58
61324;BME280;47203;48.428;11.974;2024-03-08T08:06:18;101846.13;;;16.66;63.57
61324;BME280;47203;48.428;11.974;2024-03-08T08:08:20;101849.63;;;16.67;63.56
61324;BME280;47203;48.428;11.974;2024-03-08T08:10:22;101846.97;;;16.67;63.57
61324;BME280;47203;48.428;11.974;2024-03-08T08:12:25;101839.97;;;16.66;63.55
61324;BME280;47203;48.428;11.974;2024-03-08T08:14:29;101853.28;;;16.66;63.60
61324;BME280;47203;48.428;11.974;2024-03-08T08:16:31;101847.94;;;16.66;63.44
61324;BME280;47203;48.428;11.974;2024-03-08T08:18:33;101850.63;;;16.66;63.39
61324;BME280;47203;48.428;11.974;2024-03-08T08:20:36;101843.66;;;16.65;63.63
61324;BME280;47203;48.428;11.974;2024-03-08T08:22:39;101837.31;;;16.66;63.59
61324;BME280;47203;48.428;11.974;2024-03-08T08:24:41;101835.69;;;16.65;63.50
61324;BME280;47203;48.428;11.974;2024-03-08T08:26:43;101836.66;;;16.64;63.58
61324;BME280;47203;48.428;11.974;2024-03-08T08:28:45;101835.00;;;16.63;63.46
61324;BME280;47203;48.428;11.974;2024-03-08T08:30:47;101834.00;;;16.64;63.46
61324;BME280;47203;48.428;11.974;2024-03-08T08:32:49;101836.66;;;16.64;63.47
61324;BME280;47203;48.428;11.974;2024-03-08T08:34:51;101830.53;;;16.63;63.43
61324;BME280;47203;48.428;11.974;2024-03-08T08:36:54;101832.34;;;16.63;63.61
61324;BME280;47203;48.428;11.974;2024-03-08T08:38:56;101831.53;;;16.62;63.53
61324;BME280;47203;48.428;11.974;2024-03-08T08:40:59;101826.22;;;16.62;63.52
61324;BME280;47203;48.428;11.974;2024-03-08T08:43:03;101815.75;;;16.61;63.58
61324;BME280;47203;48.428;11.974;2024-03-08T08:45:06;101821.06;;;16.61;63.46
61324;BME280;47203;48.428;11.974;2024-03-08T08:47:08;101819.22;;;16.61;63.58
61324;BME280;47203;48.428;11.974;2024-03-08T08:49:10;101819.22;;;16.61;63.46
61324;BME280;47203;48.428;11.974;2024-03-08T08:51:15;101828.88;;;16.62;63.52
61324;BME280;47203;48.428;11.974;2024-03-08T08:53:18;101811.25;;;16.61;63.62
61324;BME280;47203;48.428;11.974;2024-03-08T08:55:20;101821.06;;;16.61;63.54
61324;BME280;47203;48.428;11.974;2024-03-08T08:57:21;101806.91;;;16.60;63.42
61324;BME280;47203;48.428;11.974;2024-03-08T08:59:23;101813.09;;;16.61;63.63
61324;BME280;47203;48.428;11.974;2024-03-08T09:01:25;101807.94;;;16.59;63.64
61324;BME280;47203;48.428;11.974;2024-03-08T09:03:27;101802.63;;;16.59;63.63
61324;BME280;47203;48.428;11.974;2024-03-08T09:05:30;101804.44;;;16.58;63.65
61324;BME280;47203;48.428;11.974;2024-03-08T09:07:32;101804.44;;;16.58;63.55
61324;BME280;47203;48.428;11.974;2024-03-08T09:09:36;101794.66;;;16.59;63.51
61324;BME280;47203;48.428;11.974;2024-03-08T09:11:39;101796.28;;;16.60;63.67
61324;BME280;47203;48.428;11.974;2024-03-08T09:13:44;101789.50;;;16.57;63.45
61324;BME280;47203;48.428;11.974;2024-03-08T09:15:46;101795.66;;;16.58;63.39
61324;BME280;47203;48.428;11.974;2024-03-08T09:17:48;101795.66;;;16.58;63.67
61324;BME280;47203;48.428;11.974;2024-03-08T09:19:50;101789.50;;;16.57;63.48
61324;BME280;47203;48.428;11.974;2024-03-08T09:21:51;101793.78;;;16.58;63.55
61324;BME280;47203;48.428;11.974;2024-03-08T09:23:53;101786.00;;;16.57;63.46
61324;BME280;47203;48.428;11.974;2024-03-08T09:26:00;101778.88;;;16.57;63.58
61324;BME280;47203;48.428;11.974;2024-03-08T09:28:04;101777.03;;;16.58;63.64
61324;BME280;47203;48.428;11.974;2024-03-08T09:30:07;101779.69;;;16.58;63.60
61324;BME280;47203;48.428;11.974;2024-03-08T09:32:10;101777.03;;;16.58;63.58
61324;BME280;47203;48.428;11.974;2024-03-08T09:34:12;101768.22;;;16.57;63.56
61324;BME280;47203;48.428;11.974;2024-03-08T09:36:14;101771.06;;;16.56;63.65
61324;BME280;47203;48.428;11.974;2024-03-08T09:38:16;101763.91;;;16.56;63.51
61324;BME280;47203;48.428;11.974;2024-03-08T09:40:18;101760.44;;;16.56;63.56
61324;BME280;47203;48.428;11.974;2024-03-08T09:42:21;101761.25;;;16.56;63.63
61324;BME280;47203;48.428;11.974;2024-03-08T09:44:23;101757.75;;;16.56;63.53
61324;BME280;47203;48.428;11.974;2024-03-08T09:46:25;101748.94;;;16.55;63.58
61324;BME280;47203;48.428;11.974;2024-03-08T09:48:27;101744.47;;;16.56;63.47
61324;BME280;47203;48.428;11.974;2024-03-08T09:50:29;101748.75;;;16.57;63.50
61324;BME280;47203;48.428;11.974;2024-03-08T09:52:33;101748.75;;;16.57;63.47
61324;BME280;47203;48.428;11.974;2024-03-08T09:54:35;101753.25;;;16.56;63.67
61324;BME280;47203;48.428;11.974;2024-03-08T09:56:39;101743.44;;;16.57;63.44
61324;BME280;47203;48.428;11.974;2024-03-08T09:58:43;101732.78;;;16.57;63.72
61324;BME280;47203;48.428;11.974;2024-03-08T10:01:04;101732.78;;;16.57;63.54
61324;BME280;47203;48.428;11.974;2024-03-08T10:03:07;101737.31;;;16.56;63.56
61324;BME280;47203;48.428;11.974;2024-03-08T10:05:09;101736.31;;;16.57;63.58
61324;BME280;47203;48.428;11.974;2024-03-08T10:07:11;101726.47;;;16.58;63.62
61324;BME280;47203;48.428;11.974;2024-03-08T10:09:13;101723.00;;;16.57;63.50
61324;BME280;47203;48.428;11.974;2024-03-08T10:11:14;101711.50;;;16.57;63.52
61324;BME280;47203;48.428;11.974;2024-03-08T10:13:16;101717.69;;;16.57;63.64
61324;BME280;47203;48.428;11.974;2024-03-08T10:15:21;101711.50;;;16.57;63.66
61324;BME280;47203;48.428;11.974;2024-03-08T10:17:24;101720.34;;;16.57;63.63
61324;BME280;47203;48.428;11.974;2024-03-08T10:19:27;101711.50;;;16.57;63.69
61324;BME280;47203;48.428;11.974;2024-03-08T10:21:31;101715.84;;;16.58;63.51
61324;BME280;47203;48.428;11.974;2024-03-08T10:23:33;101706.84;;;16.59;63.77
61324;BME280;47203;48.428;11.974;2024-03-08T10:25:35;101715.66;;;16.60;63.49
61324;BME280;47203;48.428;11.974;2024-03-08T10:27:40;101703.16;;;16.60;63.54
61324;BME280;47203;48.428;11.974;2024-03-08T10:29:42;101697.03;;;16.60;63.60
61324;BME280;47203;48.428;11.974;2024-03-08T10:31:47;101702.34;;;16.60;63.64
61324;BME280;47203;48.428;11.974;2024-03-08T10:33:50;101693.38;;;16.61;63.63